sensor_id;sensor_type;location;lat;lon;timestamp;pressure;altitude;pressure_sealevel;temperature;humidity
45939;BME280;31650;48.818;9.116;2023-09-19T00:03:47;97598.97;;;16.78;100.00
45939;BME280;31650;48.818;9.116;2023-09-19T00:18:47;97627.28;;;16.83;100.00
45939;BME280;31650;48.818;9.116;2023-09-19T00:33:49;97624.81;;;16.82;100.00
45939;BME280;31650;48.818;9.116;2023-09-19T00:48:49;97645.59;;;16.68;100.00
45939;BME280;31650;48.818;9.116;2023-09-19T01:03:49;97655.97;;;16.60;100.00
45939;BME280;31650;48.818;9.116;2023-09-19T01:18:55;97668.28;;;16.53;100.00
45939;BME280;31650;48.818;9.116;2023-09-19T01:34:00;97692.06;;;16.37;100.00
45939;BME280;31650;48.818;9.116;2023-09-19T02:04:20;97717.06;;;16.08;100.00
45939;BME280;31650;48.818;9.116;2023-09-19T02:19:20;97720.34;;;15.73;100.00
45939;BME280;31650;48.818;9.116;2023-09-19T02:34:21;97717.41;;;15.58;100.00
45939;BME280;31650;48.818;9.116;2023-09-19T02:49:21;97743.03;;;15.68;100.00
45939;BME280;31650;48.818;9.116;2023-09-19T03:04:21;97752.03;;;15.91;100.00
45939;BME280;31650;48.818;9.116;2023-09-19T03:19:22;97750.16;;;15.96;100.00
45939;BME280;31650;48.818;9.116;2023-09-19T03:34:23;97752.63;;;15.98;100.00
45939;BME280;31650;48.818;9.116;2023-09-19T03:49:23;97761.72;;;16.04;100.00
45939;BME280;31650;48.818;9.116;2023-09-19T04:04:23;97783.56;;;15.66;100.00
45939;BME280;31650;48.818;9.116;2023-09-19T04:19:25;97800.06;;;15.05;100.00
45939;BME280;31650;48.818;9.116;2023-09-19T04:34:25;97816.84;;;14.92;100.00
45939;BME280;31650;48.818;9.116;2023-09-19T04:49:25;97840.47;;;14.98;100.00
45939;BME280;31650;48.818;9.116;2023-09-19T05:04:25;97880.94;;;15.13;100.00
45939;BME280;31650;48.818;9.116;2023-09-19T05:19:26;97894.81;;;15.06;100.00
45939;BME280;31650;48.818;9.116;2023-09-19T05:34:26;97914.13;;;15.17;100.00
45939;BME280;31650;48.818;9.116;2023-09-19T05:49:30;97932.31;;;14.89;100.00
45939;BME280;31650;48.818;9.116;2023-09-19T06:04:30;97959.78;;;14.48;100.00
45939;BME280;31650;48.818;9.116;2023-09-19T06:19:30;97971.81;;;14.36;100.00
45939;BME280;31650;48.818;9.116;2023-09-19T06:34:31;97963.63;;;14.64;100.00
45939;BME280;31650;48.818;9.116;2023-09-19T06:49:31;97975.03;;;15.07;100.00
45939;BME280;31650;48.818;9.116;2023-09-19T07:04:31;97986.50;;;15.76;100.00
45939;BME280;31650;48.818;9.116;2023-09-19T07:19:32;97971.72;;;16.00;100.00
45939;BME280;31650;48.818;9.116;2023-09-19T07:34:32;97972.06;;;16.30;100.00
45939;BME280;31650;48.818;9.116;2023-09-19T07:49:33;97972.41;;;16.88;100.00
45939;BME280;31650;48.818;9.116;2023-09-19T08:04:33;97966.59;;;17.17;100.00
45939;BME280;31650;48.818;9.116;2023-09-19T08:19:33;97952.66;;;18.34;95.22
45939;BME280;31650;48.818;9.116;2023-09-19T08:34:33;97943.06;;;19.70;85.66
45939;BME280;31650;48.818;9.116;2023-09-19T08:49:53;97946.13;;;20.33;74.75
45939;BME280;31650;48.818;9.116;2023-09-19T09:04:57;97945.53;;;21.79;66.51
45939;BME280;31650;48.818;9.116;2023-09-19T09:19:58;97931.34;;;22.52;60.80
45939;BME280;31650;48.818;9.116;2023-09-19T09:34:59;97954.06;;;19.85;62.57
45939;BME280;31650;48.818;9.116;2023-09-19T09:50:00;97961.25;;;19.81;64.33
45939;BME280;31650;48.818;9.116;2023-09-19T10:20:34;97943.00;;;20.50;63.04
45939;BME280;31650;48.818;9.116;2023-09-19T10:35:39;97920.31;;;22.85;56.05
45939;BME280;31650;48.818;9.116;2023-09-19T11:05:59;97938.75;;;24.30;47.75
45939;BME280;31650;48.818;9.116;2023-09-19T11:36:36;97898.59;;;24.50;44.27
45939;BME280;31650;48.818;9.116;2023-09-19T11:51:40;97905.06;;;22.69;47.69
45939;BME280;31650;48.818;9.116;2023-09-19T12:06:43;97873.16;;;25.01;44.56
45939;BME280;31650;48.818;9.116;2023-09-19T12:21:52;97879.22;;;24.08;45.66
45939;BME280;31650;48.818;9.116;2023-09-19T12:37:06;97864.72;;;22.25;48.60
45939;BME280;31650;48.818;9.116;2023-09-19T12:52:11;97850.31;;;23.26;48.14
45939;BME280;31650;48.818;9.116;2023-09-19T13:07:39;97842.47;;;23.01;46.73
45939;BME280;31650;48.818;9.116;2023-09-19T13:37:42;97831.34;;;22.68;49.91
45939;BME280;31650;48.818;9.116;2023-09-19T13:52:43;97823.78;;;22.73;50.54
45939;BME280;31650;48.818;9.116;2023-09-19T14:07:43;97814.25;;;22.80;49.91
45939;BME280;31650;48.818;9.116;2023-09-19T14:22:43;97805.72;;;23.23;48.83
45939;BME280;31650;48.818;9.116;2023-09-19T14:37:44;97786.75;;;23.44;48.75
45939;BME280;31650;48.818;9.116;2023-09-19T14:52:45;97774.09;;;23.79;47.09
45939;BME280;31650;48.818;9.116;2023-09-19T15:07:45;97795.56;;;23.18;46.19
45939;BME280;31650;48.818;9.116;2023-09-19T15:22:46;97781.91;;;23.35;46.20
45939;BME280;31650;48.818;9.116;2023-09-19T15:37:46;97771.34;;;23.24;45.65
45939;BME280;31650;48.818;9.116;2023-09-19T15:52:46;97759.63;;;22.15;49.23
45939;BME280;31650;48.818;9.116;2023-09-19T16:07:53;97769.03;;;21.57;51.54
45939;BME280;31650;48.818;9.116;2023-09-19T16:22:53;97766.75;;;21.40;51.77
45939;BME280;31650;48.818;9.116;2023-09-19T16:37:53;97754.63;;;21.12;54.50
45939;BME280;31650;48.818;9.116;2023-09-19T16:52:53;97756.72;;;20.72;53.85
45939;BME280;31650;48.818;9.116;2023-09-19T17:07:55;97752.19;;;20.17;56.77
45939;BME280;31650;48.818;9.116;2023-09-19T17:22:55;97758.97;;;19.46;59.89
45939;BME280;31650;48.818;9.116;2023-09-19T17:37:55;97765.25;;;18.71;63.51
45939;BME280;31650;48.818;9.116;2023-09-19T17:52:56;97784.47;;;17.84;67.77
45939;BME280;31650;48.818;9.116;2023-09-19T18:07:56;97809.19;;;17.11;72.55
45939;BME280;31650;48.818;9.116;2023-09-19T18:22:57;97829.03;;;16.49;78.97
45939;BME280;31650;48.818;9.116;2023-09-19T18:37:57;97848.78;;;15.91;87.49
45939;BME280;31650;48.818;9.116;2023-09-19T18:52:57;97868.34;;;15.34;100.00
45939;BME280;31650;48.818;9.116;2023-09-19T19:07:59;97884.69;;;14.90;100.00
45939;BME280;31650;48.818;9.116;2023-09-19T19:23:00;97902.69;;;14.69;100.00
45939;BME280;31650;48.818;9.116;2023-09-19T19:38:00;97918.38;;;14.28;100.00
45939;BME280;31650;48.818;9.116;2023-09-19T19:53:00;97933.03;;;14.22;100.00
45939;BME280;31650;48.818;9.116;2023-09-19T20:08:01;97946.28;;;14.01;100.00
45939;BME280;31650;48.818;9.116;2023-09-19T20:23:03;97946.75;;;13.70;100.00
45939;BME280;31650;48.818;9.116;2023-09-19T20:38:04;97946.28;;;13.61;100.00
45939;BME280;31650;48.818;9.116;2023-09-19T20:53:05;97947.06;;;13.73;100.00
45939;BME280;31650;48.818;9.116;2023-09-19T21:08:05;97913.97;;;14.56;100.00
45939;BME280;31650;48.818;9.116;2023-09-19T21:23:05;97908.94;;;14.53;100.00
45939;BME280;31650;48.818;9.116;2023-09-19T21:38:13;97920.41;;;14.21;100.00
45939;BME280;31650;48.818;9.116;2023-09-19T21:53:13;97938.19;;;13.66;100.00
45939;BME280;31650;48.818;9.116;2023-09-19T22:08:14;97949.47;;;13.22;100.00
45939;BME280;31650;48.818;9.116;2023-09-19T22:23:15;97957.53;;;12.70;100.00
45939;BME280;31650;48.818;9.116;2023-09-19T22:38:16;97968.59;;;12.45;100.00
45939;BME280;31650;48.818;9.116;2023-09-19T22:53:18;97949.94;;;12.96;100.00
45939;BME280;31650;48.818;9.116;2023-09-19T23:08:21;97943.56;;;13.26;100.00
45939;BME280;31650;48.818;9.116;2023-09-19T23:23:24;97931.56;;;13.27;100.00
45939;BME280;31650;48.818;9.116;2023-09-19T23:38:24;97941.19;;;13.06;100.00
45939;BME280;31650;48.818;9.116;2023-09-19T23:53:25;97955.25;;;12.55;100.00
